createdAt,value
2022-12-20T00:01:25.232Z,8.33
2022-12-20T00:03:54.601Z,8.60
2022-12-20T00:06:23.202Z,7.60
2022-12-20T00:08:58.421Z,7.70
2022-12-20T00:11:27.171Z,8.80
2022-12-20T00:13:54.853Z,8.90
2022-12-20T00:16:28.333Z,8.23
2022-12-20T00:18:58.317Z,8.27
2022-12-20T00:21:26.930Z,8.33
2022-12-20T00:23:55.333Z,9.20
2022-12-20T00:26:26.524Z,8.97
2022-12-20T00:28:54.852Z,8.63
2022-12-20T00:31:23.762Z,8.17
2022-12-20T00:33:53.810Z,8.67
2022-12-20T00:36:22.587Z,8.47
2022-12-20T00:38:51.936Z,9.10
2022-12-20T00:41:22.139Z,8.70
2022-12-20T00:43:50.100Z,8.93
2022-12-20T00:46:19.059Z,9.53
2022-12-20T00:48:46.936Z,8.80
2022-12-20T00:51:17.903Z,9.73
2022-12-20T00:53:46.599Z,9.27
2022-12-20T00:56:14.781Z,9.40
2022-12-20T00:58:43.824Z,8.30
2022-12-20T01:01:29.068Z,9.17
2022-12-20T01:03:56.759Z,9.03
2022-12-20T01:06:25.800Z,9.20
2022-12-20T01:08:54.620Z,9.40
2022-12-20T01:11:33.397Z,9.57
2022-12-20T01:14:12.037Z,9.80
2022-12-20T01:16:42.417Z,10.10
2022-12-20T01:19:13.769Z,10.70
2022-12-20T01:21:45.036Z,9.93
2022-12-20T01:24:20.287Z,9.67
2022-12-20T01:26:48.329Z,9.30
2022-12-20T01:29:16.274Z,8.57
2022-12-20T01:31:45.277Z,9.17
2022-12-20T01:34:12.764Z,9.60
2022-12-20T01:36:40.236Z,10.23
2022-12-20T01:39:15.301Z,9.17
2022-12-20T01:41:44.366Z,9.27
2022-12-20T01:44:17.444Z,9.87
2022-12-20T01:46:47.773Z,10.03
2022-12-20T01:49:17.634Z,8.90
2022-12-20T01:51:53.354Z,11.00
2022-12-20T01:54:25.927Z,10.90
2022-12-20T01:57:04.195Z,10.37
2022-12-20T01:59:36.223Z,10.63
2022-12-20T02:02:08.085Z,11.13
2022-12-20T02:04:35.671Z,10.77
2022-12-20T02:07:04.911Z,11.27
2022-12-20T02:09:34.148Z,11.47
2022-12-20T02:12:13.536Z,11.67
2022-12-20T02:14:51.397Z,11.07
2022-12-20T02:17:45.047Z,11.40
2022-12-20T02:20:49.147Z,11.43
2022-12-20T02:23:26.332Z,11.47
2022-12-20T02:26:15.919Z,11.50
2022-12-20T02:28:55.350Z,11.33
2022-12-20T02:31:33.214Z,10.87
2022-12-20T02:34:01.662Z,10.90
2022-12-20T02:36:29.193Z,11.23
2022-12-20T02:38:56.715Z,11.20
2022-12-20T02:41:30.729Z,12.23
2022-12-20T02:44:31.172Z,11.83
2022-12-20T02:47:01.749Z,11.53
2022-12-20T02:49:32.870Z,11.53
2022-12-20T02:52:02.642Z,11.60
2022-12-20T02:54:30.492Z,11.83
2022-12-20T02:57:21.616Z,11.93
2022-12-20T03:00:04.770Z,11.50
2022-12-20T03:02:53.568Z,10.60
2022-12-20T03:05:23.931Z,12.20
2022-12-20T03:07:51.977Z,10.63
2022-12-20T03:10:20.418Z,11.13
2022-12-20T03:12:47.990Z,9.37
2022-12-20T03:15:15.433Z,12.27
2022-12-20T03:17:42.906Z,12.37
2022-12-20T03:20:11.422Z,11.90
2022-12-20T03:22:39.477Z,11.37
2022-12-20T03:25:07.398Z,11.67
2022-12-20T03:27:34.915Z,12.53
2022-12-20T03:30:02.327Z,11.30
2022-12-20T03:32:29.782Z,11.80
2022-12-20T03:34:57.125Z,12.20
2022-12-20T03:37:25.529Z,12.87
2022-12-20T03:39:53.192Z,11.57
2022-12-20T03:42:20.616Z,11.90
2022-12-20T03:44:48.222Z,11.77
2022-12-20T03:47:15.654Z,11.70
2022-12-20T03:49:43.123Z,11.83
2022-12-20T03:52:14.251Z,12.37
2022-12-20T03:54:41.936Z,11.43
2022-12-20T03:57:09.315Z,12.17
2022-12-20T03:59:36.814Z,12.20
2022-12-20T04:02:04.611Z,12.63
2022-12-20T04:04:32.177Z,12.07
2022-12-20T04:06:59.506Z,12.20
2022-12-20T04:09:27.016Z,11.20
2022-12-20T04:11:54.331Z,12.30
2022-12-20T04:14:21.796Z,11.77
2022-12-20T04:16:49.205Z,12.70
2022-12-20T04:19:16.733Z,12.40
2022-12-20T04:21:44.149Z,12.03
2022-12-20T04:24:11.767Z,13.63
2022-12-20T04:26:39.131Z,12.03
2022-12-20T04:29:06.759Z,13.23
2022-12-20T04:31:34.261Z,13.47
2022-12-20T04:34:01.778Z,13.33
2022-12-20T04:36:29.143Z,13.50
2022-12-20T04:38:56.658Z,12.20
2022-12-20T04:41:24.084Z,12.93
2022-12-20T04:43:57.293Z,12.73
2022-12-20T04:46:26.426Z,12.40
2022-12-20T04:48:57.664Z,12.50
2022-12-20T04:51:27.527Z,12.53
2022-12-20T04:53:55.571Z,11.93
2022-12-20T04:56:28.585Z,12.70
2022-12-20T04:58:58.656Z,12.17
2022-12-20T05:01:35.596Z,12.70
2022-12-20T05:04:03.235Z,12.67
2022-12-20T05:06:30.742Z,13.10
2022-12-20T05:08:58.100Z,12.97
2022-12-20T05:11:25.621Z,12.43
2022-12-20T05:13:52.956Z,13.00
2022-12-20T05:16:20.352Z,12.97
2022-12-20T05:18:49.518Z,13.50
2022-12-20T05:21:36.404Z,13.10
2022-12-20T05:24:22.446Z,13.10
2022-12-20T05:26:49.905Z,13.00
2022-12-20T05:29:17.339Z,14.40
2022-12-20T05:31:47.885Z,12.97
2022-12-20T05:34:16.349Z,13.50
2022-12-20T05:36:46.611Z,13.37
2022-12-20T05:39:15.248Z,13.43
2022-12-20T05:41:42.619Z,15.20
2022-12-20T05:44:09.968Z,14.10
2022-12-20T05:46:37.654Z,13.17
2022-12-20T05:49:05.349Z,13.63
2022-12-20T05:51:32.767Z,13.43
2022-12-20T05:54:00.520Z,14.90
2022-12-20T05:56:28.753Z,14.63
2022-12-20T05:58:56.290Z,15.57
2022-12-20T06:01:23.977Z,13.67
2022-12-20T06:03:51.596Z,15.43
2022-12-20T06:06:19.301Z,12.47
2022-12-20T06:08:46.915Z,15.63
2022-12-20T06:11:15.390Z,14.23
2022-12-20T06:13:42.949Z,14.90
2022-12-20T06:16:10.385Z,16.90
2022-12-20T06:18:38.886Z,16.03
2022-12-20T06:21:06.163Z,15.80
2022-12-20T06:23:34.485Z,16.30
2022-12-20T06:26:01.855Z,16.73
2022-12-20T06:28:30.952Z,15.40
2022-12-20T06:30:58.661Z,16.00
2022-12-20T06:33:26.109Z,16.47
2022-12-20T06:35:53.982Z,15.57
2022-12-20T06:38:22.047Z,16.13
2022-12-20T06:40:49.463Z,14.57
2022-12-20T06:43:17.260Z,16.70
2022-12-20T06:45:44.830Z,16.53
2022-12-20T06:48:12.500Z,17.07
2022-12-20T06:50:40.037Z,15.10
2022-12-20T06:53:07.419Z,16.77
2022-12-20T06:55:36.311Z,14.63
2022-12-20T06:58:04.372Z,16.03
2022-12-20T07:00:32.068Z,16.33
2022-12-20T07:03:01.909Z,16.73
2022-12-20T07:05:29.705Z,15.10
2022-12-20T07:07:58.232Z,15.93
2022-12-20T07:10:25.736Z,15.57
2022-12-20T07:12:53.347Z,17.23
2022-12-20T07:15:22.311Z,16.87
2022-12-20T07:17:49.828Z,17.23
2022-12-20T07:20:17.940Z,18.10
2022-12-20T07:22:48.245Z,16.77
2022-12-20T07:25:15.715Z,16.30
2022-12-20T07:27:43.100Z,16.80
2022-12-20T07:30:11.697Z,17.27
2022-12-20T07:32:42.950Z,17.27
2022-12-20T07:35:15.730Z,17.77
2022-12-20T07:37:43.743Z,16.63
2022-12-20T07:40:14.824Z,16.57
2022-12-20T07:42:52.508Z,15.50
2022-12-20T07:45:20.399Z,15.43
2022-12-20T07:47:47.994Z,17.27
2022-12-20T07:50:30.129Z,15.30
2022-12-20T07:52:58.816Z,15.63
2022-12-20T07:55:35.011Z,16.90
2022-12-20T07:58:20.171Z,16.93
2022-12-20T08:00:53.298Z,15.43
2022-12-20T08:09:49.267Z,15.57
2022-12-20T08:15:18.580Z,16.43
2022-12-20T08:20:41.609Z,15.87
2022-12-20T08:23:15.692Z,14.43
2022-12-20T08:25:45.541Z,16.33
2022-12-20T08:28:14.545Z,14.77
2022-12-20T08:30:42.449Z,15.13
2022-12-20T08:33:13.177Z,15.47
2022-12-20T08:35:41.625Z,16.87
2022-12-20T08:38:09.391Z,16.97
2022-12-20T08:40:43.097Z,15.90
2022-12-20T08:43:11.148Z,15.20
2022-12-20T08:45:38.888Z,17.97
2022-12-20T08:48:08.213Z,16.97
2022-12-20T08:50:36.703Z,15.87
2022-12-20T08:53:04.170Z,16.83
2022-12-20T08:55:37.139Z,16.27
2022-12-20T08:58:14.796Z,15.40
2022-12-20T09:00:42.413Z,16.73
2022-12-20T09:03:12.279Z,17.30
2022-12-20T09:05:51.704Z,16.33
2022-12-20T09:08:19.587Z,16.13
2022-12-20T09:10:49.417Z,16.13
2022-12-20T09:13:22.815Z,15.93
2022-12-20T09:16:13.503Z,15.80
2022-12-20T09:19:26.117Z,16.20
2022-12-20T09:22:02.950Z,15.07
2022-12-20T09:24:33.602Z,15.67
2022-12-20T09:27:05.562Z,15.77
2022-12-20T09:29:35.679Z,13.33
2022-12-20T09:32:08.857Z,15.63
2022-12-20T09:34:37.150Z,15.77
2022-12-20T09:42:37.297Z,14.93
2022-12-20T09:45:10.068Z,14.77
2022-12-20T09:47:40.053Z,13.47
2022-12-20T09:50:16.818Z,14.20
2022-12-20T09:52:51.741Z,13.83
2022-12-20T09:55:47.534Z,15.03
2022-12-20T09:58:27.799Z,15.27
2022-12-20T10:00:58.109Z,14.43
2022-12-20T10:03:33.661Z,13.67
2022-12-20T10:06:16.704Z,14.47
2022-12-20T10:08:53.558Z,14.63
2022-12-20T10:11:51.632Z,14.50
2022-12-20T10:14:40.012Z,15.90
2022-12-20T10:17:36.087Z,15.43
2022-12-20T10:20:29.063Z,16.97
2022-12-20T10:23:44.664Z,16.00
2022-12-20T10:26:14.210Z,16.53
2022-12-20T10:28:49.226Z,18.17
2022-12-20T10:31:21.041Z,19.50
2022-12-20T10:33:56.216Z,16.57
2022-12-20T10:37:11.666Z,16.37
2022-12-20T10:39:54.001Z,17.37
2022-12-20T10:42:41.049Z,18.43
2022-12-20T10:45:38.461Z,17.90
2022-12-20T10:48:31.488Z,17.67
2022-12-20T10:51:34.543Z,16.80
2022-12-20T10:57:14.844Z,19.67
2022-12-20T11:00:06.938Z,17.57
2022-12-20T11:02:42.342Z,18.47
2022-12-20T11:05:13.299Z,18.77
2022-12-20T11:10:42.173Z,19.20
2022-12-20T11:13:25.978Z,18.87
2022-12-20T11:16:02.152Z,20.17
2022-12-20T11:19:00.635Z,19.50
2022-12-20T11:22:05.938Z,19.70
2022-12-20T11:24:49.907Z,19.07
2022-12-20T11:27:31.357Z,20.47
2022-12-20T11:30:18.269Z,17.30
2022-12-20T11:33:04.379Z,18.90
2022-12-20T11:36:01.468Z,19.00
2022-12-20T11:39:15.807Z,19.50
2022-12-20T11:42:12.847Z,14.10
2022-12-20T11:45:39.025Z,15.00
2022-12-20T11:52:29.657Z,17.17
2022-12-20T11:55:21.508Z,14.07
2022-12-20T11:58:19.639Z,17.83
2022-12-20T12:01:04.761Z,18.30
2022-12-20T12:03:42.170Z,16.83
2022-12-20T12:06:24.163Z,15.50
2022-12-20T12:09:10.443Z,17.00
2022-12-20T12:15:18.050Z,18.17
2022-12-20T12:28:06.425Z,19.70
2022-12-20T12:31:05.214Z,18.10
2022-12-20T12:46:32.710Z,18.17
2022-12-20T12:49:10.684Z,17.63
2022-12-20T12:51:41.918Z,16.83
2022-12-20T12:54:09.349Z,14.93
2022-12-20T12:56:46.657Z,17.83
2022-12-20T12:59:29.702Z,14.80
2022-12-20T13:02:06.160Z,17.90
2022-12-20T13:04:59.789Z,17.83
2022-12-20T13:07:33.280Z,18.00
2022-12-20T13:10:03.507Z,18.27
2022-12-20T13:12:39.560Z,17.00
2022-12-20T13:15:22.650Z,17.07
2022-12-20T13:17:58.362Z,14.77
2022-12-20T13:20:34.946Z,16.67
2022-12-20T13:23:08.520Z,15.83
2022-12-20T13:25:38.961Z,16.77
2022-12-20T13:28:24.902Z,17.47
2022-12-20T13:31:01.705Z,12.23
2022-12-20T13:33:46.778Z,16.60
2022-12-20T13:36:16.982Z,15.47
2022-12-20T13:38:52.957Z,14.10
2022-12-20T13:41:24.998Z,15.37
2022-12-20T13:43:56.401Z,15.70
2022-12-20T13:46:55.849Z,14.47
2022-12-20T13:49:27.766Z,15.17
2022-12-20T13:52:27.610Z,14.10
2022-12-20T13:54:58.883Z,13.40
2022-12-20T13:57:33.298Z,15.67
2022-12-20T14:00:07.268Z,14.80
2022-12-20T14:02:41.993Z,14.83
2022-12-20T14:05:26.781Z,15.20
2022-12-20T14:08:22.158Z,14.43
2022-12-20T14:10:51.949Z,14.13
2022-12-20T14:13:28.315Z,15.70
2022-12-20T14:15:56.561Z,14.17
2022-12-20T14:18:25.970Z,14.27
2022-12-20T14:20:59.943Z,14.50
2022-12-20T14:23:34.381Z,14.97
2022-12-20T14:26:02.717Z,15.53
2022-12-20T14:28:37.984Z,14.90
2022-12-20T14:31:08.000Z,16.07
2022-12-20T14:33:42.755Z,14.93
2022-12-20T14:36:16.003Z,10.00
2022-12-20T14:38:49.329Z,16.83
2022-12-20T14:41:38.160Z,12.83
2022-12-20T14:44:08.413Z,16.43
2022-12-20T14:46:37.126Z,14.57
2022-12-20T14:49:38.093Z,16.70
2022-12-20T14:52:06.793Z,15.67
2022-12-20T14:57:26.273Z,15.33
2022-12-20T15:00:07.261Z,13.13
2022-12-20T15:02:36.389Z,15.10
2022-12-20T15:05:36.345Z,14.10
2022-12-20T15:08:23.440Z,13.37
2022-12-20T15:11:11.078Z,15.30
2022-12-20T15:13:39.881Z,8.90
2022-12-20T15:16:16.758Z,13.40
2022-12-20T15:18:45.365Z,11.17
2022-12-20T15:21:26.929Z,11.87
2022-12-20T15:23:56.482Z,11.00
2022-12-20T15:26:25.712Z,12.47
2022-12-20T15:28:54.024Z,10.67
2022-12-20T15:31:30.749Z,11.13
2022-12-20T15:34:02.668Z,10.60
2022-12-20T15:36:30.600Z,12.20
2022-12-20T15:39:15.539Z,11.10
2022-12-20T15:41:49.242Z,11.67
2022-12-20T15:44:20.720Z,8.80
2022-12-20T15:46:48.737Z,13.20
2022-12-20T15:49:19.201Z,13.50
2022-12-20T15:51:48.480Z,11.77
2022-12-20T15:54:22.027Z,10.97
2022-12-20T15:56:49.413Z,12.83
2022-12-20T15:59:48.895Z,9.00
2022-12-20T16:02:11.382Z,12.47
2022-12-20T16:04:38.797Z,9.50
2022-12-20T16:07:14.374Z,11.27
2022-12-20T16:09:41.851Z,12.63
2022-12-20T16:12:26.343Z,10.90
2022-12-20T16:14:54.039Z,12.30
2022-12-20T16:17:22.238Z,13.97
2022-12-20T16:19:49.973Z,9.70
2022-12-20T16:22:20.056Z,11.07
2022-12-20T16:24:47.829Z,12.73
2022-12-20T16:27:15.466Z,12.57
2022-12-20T16:29:42.828Z,12.20
2022-12-20T16:32:22.242Z,9.83
2022-12-20T16:34:50.527Z,9.90
2022-12-20T16:37:18.264Z,10.70
2022-12-20T16:39:45.973Z,11.30
2022-12-20T16:42:22.808Z,9.17
2022-12-20T16:44:54.380Z,11.13
2022-12-20T16:47:22.265Z,10.97
2022-12-20T16:49:53.444Z,9.60
2022-12-20T16:52:22.956Z,9.50
2022-12-20T16:54:51.116Z,10.37
2022-12-20T16:57:18.929Z,9.47
2022-12-20T16:59:46.382Z,9.63
2022-12-20T17:02:30.653Z,9.63
2022-12-20T17:04:58.694Z,10.50
2022-12-20T17:07:26.487Z,10.57
2022-12-20T17:09:54.458Z,11.10
2022-12-20T17:12:22.932Z,4.30
2022-12-20T17:14:50.702Z,9.17
2022-12-20T17:17:18.061Z,9.97
2022-12-20T17:19:46.226Z,7.80
2022-12-20T17:22:24.432Z,10.33
2022-12-20T17:24:52.140Z,5.37
2022-12-20T17:27:19.704Z,8.53
2022-12-20T17:29:47.286Z,8.70
2022-12-20T17:32:21.525Z,9.43
2022-12-20T17:34:49.294Z,9.27
2022-12-20T17:37:18.108Z,9.70
2022-12-20T17:39:45.800Z,10.23
2022-12-20T17:42:14.162Z,9.33
2022-12-20T17:44:41.604Z,9.50
2022-12-20T17:47:09.272Z,10.10
2022-12-20T17:49:36.707Z,11.07
2022-12-20T17:52:04.603Z,9.40
2022-12-20T17:54:38.960Z,10.23
2022-12-20T17:57:16.121Z,9.10
2022-12-20T17:59:43.980Z,10.37
2022-12-20T18:02:25.251Z,10.00
2022-12-20T18:04:53.120Z,9.43
2022-12-20T18:07:20.946Z,10.53
2022-12-20T18:09:48.802Z,8.70
2022-12-20T18:12:17.532Z,9.20
2022-12-20T18:14:45.310Z,10.40
2022-12-20T18:17:13.219Z,8.50
2022-12-20T18:19:41.181Z,6.30
2022-12-20T18:22:08.724Z,9.13
2022-12-20T18:24:36.272Z,7.50
2022-12-20T18:27:03.691Z,9.30
2022-12-20T18:29:31.352Z,10.03
2022-12-20T18:31:58.863Z,10.60
2022-12-20T18:34:26.398Z,10.57
2022-12-20T18:36:53.756Z,10.73
2022-12-20T18:39:21.275Z,11.37
2022-12-20T18:41:48.826Z,11.83
2022-12-20T18:44:16.439Z,10.97
2022-12-20T18:46:46.847Z,11.70
2022-12-20T18:49:14.193Z,11.43
2022-12-20T18:51:41.966Z,10.37
2022-12-20T18:54:14.241Z,11.73
2022-12-20T18:56:41.646Z,11.07
2022-12-20T18:59:12.321Z,11.33
2022-12-20T19:01:42.090Z,10.83
2022-12-20T19:04:10.303Z,10.77
2022-12-20T19:06:38.244Z,9.57
2022-12-20T19:09:09.095Z,11.80
2022-12-20T19:11:36.949Z,9.30
2022-12-20T19:14:04.604Z,10.90
2022-12-20T19:16:33.184Z,10.93
2022-12-20T19:19:02.606Z,10.60
2022-12-20T19:21:33.783Z,10.77
2022-12-20T19:24:05.198Z,9.40
2022-12-20T19:26:33.919Z,11.10
2022-12-20T19:29:01.596Z,9.80
2022-12-20T19:31:31.801Z,10.17
2022-12-20T19:34:09.266Z,10.97
2022-12-20T19:36:39.694Z,12.27
2022-12-20T19:39:15.586Z,7.60
2022-12-20T19:41:43.393Z,10.20
2022-12-20T19:44:10.939Z,10.83
2022-12-20T19:46:38.493Z,10.60
2022-12-20T19:49:06.099Z,10.90
2022-12-20T19:51:33.967Z,9.73
2022-12-20T19:54:01.578Z,11.63
2022-12-20T19:56:32.027Z,11.87
2022-12-20T19:59:00.232Z,12.23
2022-12-20T20:01:28.415Z,12.63
2022-12-20T20:03:58.406Z,13.33
2022-12-20T20:06:27.471Z,10.37
2022-12-20T20:08:57.937Z,22.00
2022-12-20T20:11:26.207Z,10.70
2022-12-20T20:13:53.610Z,9.07
2022-12-20T20:16:23.057Z,12.67
2022-12-20T20:18:51.123Z,9.90
2022-12-20T20:21:22.599Z,10.10
2022-12-20T20:23:51.589Z,10.90
2022-12-20T20:26:22.489Z,11.00
2022-12-20T20:28:50.688Z,13.80
2022-12-20T20:31:19.364Z,9.63
2022-12-20T20:33:47.334Z,14.47
2022-12-20T20:36:20.777Z,13.03
2022-12-20T20:38:49.717Z,13.50
2022-12-20T20:41:17.259Z,10.53
2022-12-20T20:43:45.033Z,11.63
2022-12-20T20:46:14.585Z,14.53
2022-12-20T20:48:43.036Z,12.53
2022-12-20T20:51:11.229Z,11.80
2022-12-20T20:53:39.487Z,13.80
2022-12-20T20:56:08.380Z,18.23
2022-12-20T20:58:36.268Z,16.60
2022-12-20T21:01:05.899Z,21.53
2022-12-20T21:03:33.608Z,18.93
2022-12-20T21:08:48.533Z,17.67
2022-12-20T21:11:16.156Z,19.58
2022-12-20T21:13:43.856Z,20.50
2022-12-20T21:16:14.061Z,13.47
2022-12-20T21:18:41.683Z,12.02
2022-12-20T21:21:11.161Z,7.30
2022-12-20T21:23:40.100Z,13.07
2022-12-20T21:26:08.234Z,14.68
2022-12-20T21:28:36.041Z,13.27
2022-12-20T21:31:05.796Z,16.50
2022-12-20T21:33:33.398Z,14.70
2022-12-20T21:36:02.280Z,17.13
2022-12-20T21:38:30.027Z,21.35
2022-12-20T21:41:10.475Z,16.98
2022-12-20T21:43:38.044Z,23.02
2022-12-20T21:46:05.904Z,23.58
2022-12-20T21:48:33.304Z,11.13
2022-12-20T21:51:10.344Z,18.77
2022-12-20T21:53:46.461Z,19.17
2022-12-20T21:56:15.837Z,19.73
2022-12-20T21:58:44.646Z,11.18
2022-12-20T22:01:14.462Z,21.83
2022-12-20T22:03:42.823Z,22.23
2022-12-20T22:06:11.000Z,25.63
2022-12-20T22:08:38.611Z,22.92
2022-12-20T22:11:14.980Z,21.65
2022-12-20T22:13:42.610Z,26.52
2022-12-20T22:16:18.978Z,27.38
2022-12-20T22:18:50.052Z,22.10
2022-12-20T22:21:18.556Z,21.23
2022-12-20T22:23:45.976Z,22.27
2022-12-20T22:26:19.116Z,22.60
2022-12-20T22:28:55.069Z,16.52
2022-12-20T22:31:23.167Z,16.35
2022-12-20T22:33:52.961Z,22.27
2022-12-20T22:36:20.961Z,24.38
2022-12-20T22:38:50.399Z,18.33
2022-12-20T22:41:20.166Z,17.90
2022-12-20T22:43:48.121Z,25.17
2022-12-20T22:49:02.088Z,15.70
2022-12-20T22:51:31.198Z,20.20
2022-12-20T22:54:00.031Z,19.92
2022-12-20T22:56:28.052Z,19.88
2022-12-20T22:58:56.086Z,17.60
2022-12-20T23:01:23.802Z,15.43
2022-12-20T23:03:51.497Z,15.30
2022-12-20T23:06:21.342Z,13.48
2022-12-20T23:08:49.344Z,14.85
2022-12-20T23:11:43.641Z,19.83
2022-12-20T23:14:35.839Z,18.67
2022-12-20T23:17:03.713Z,17.77
2022-12-20T23:19:51.330Z,16.45
2022-12-20T23:22:37.998Z,17.05
2022-12-20T23:25:10.851Z,16.55
2022-12-20T23:27:39.484Z,16.33
2022-12-20T23:30:09.214Z,12.85
2022-12-20T23:32:36.779Z,15.13
2022-12-20T23:35:11.937Z,9.77
2022-12-20T23:37:39.979Z,20.38
2022-12-20T23:40:08.410Z,16.67
2022-12-20T23:42:35.953Z,18.90
2022-12-20T23:45:03.479Z,17.02
2022-12-20T23:47:31.876Z,16.92
2022-12-20T23:49:59.315Z,16.30
2022-12-20T23:52:26.670Z,19.65
2022-12-20T23:54:54.110Z,18.70
2022-12-20T23:57:21.561Z,18.65
2022-12-20T23:59:48.878Z,16.52
